Time;durP1;ratioP1;P1;durP2;ratioP2;P2;SDS_P1;SDS_P2;PMS_P1;PMS_P2;Temp;Humidity;BMP_temperature;BMP_pressure;BME280_temperature;BME280_humidity;BME280_pressure;Samples;Min_cycle;Max_cycle;Signal;HPM_P1;HPM_P2
2023/06/30 00:00:33;;;;;;;1.58;1.48;;;;;;;;;;5068557;28;20530;-70
2023/06/30 00:03:00;;;;;;;2.00;1.57;;;;;;;;;;5057962;28;20435;-70
2023/06/30 00:05:31;;;;;;;3.30;1.63;;;;;;;;;;5066844;28;20487;-70
2023/06/30 00:07:58;;;;;;;2.72;1.95;;;;;;;;;;5067232;28;21708;-70
2023/06/30 00:10:26;;;;;;;1.80;1.52;;;;;;;;;;5072808;28;20429;-70
2023/06/30 00:12:53;;;;;;;1.73;1.63;;;;;;;;;;5068515;28;20455;-69
2023/06/30 00:15:21;;;;;;;2.77;2.23;;;;;;;;;;5068066;28;20427;-70
2023/06/30 00:17:52;;;;;;;2.15;1.80;;;;;;;;;;5065342;28;20439;-71
2023/06/30 00:20:21;;;;;;;1.50;1.40;;;;;;;;;;5050419;28;20794;-71
2023/06/30 00:22:48;;;;;;;1.40;1.07;;;;;;;;;;5069861;28;20848;-70
2023/06/30 00:25:19;;;;;;;1.25;1.20;;;;;;;;;;5072327;28;21065;-70
2023/06/30 00:27:47;;;;;;;1.90;1.80;;;;;;;;;;5067282;28;20429;-69
2023/06/30 00:30:17;;;;;;;1.95;1.73;;;;;;;;;;5072214;28;20517;-69
2023/06/30 00:32:50;;;;;;;2.80;1.70;;;;;;;;;;5066642;28;20499;-69
2023/06/30 00:35:18;;;;;;;1.60;1.48;;;;;;;;;;5069605;28;20435;-69
2023/06/30 00:38:09;;;;;;;2.60;1.50;;;;;;;;;;5053718;28;20403;-69
2023/06/30 00:40:39;;;;;;;2.70;1.70;;;;;;;;;;5055099;28;21169;-69
2023/06/30 00:43:30;;;;;;;1.70;1.60;;;;;;;;;;5066821;28;20482;-70
2023/06/30 00:46:00;;;;;;;1.70;1.60;;;;;;;;;;5064454;28;20436;-70
2023/06/30 00:48:27;;;;;;;2.08;1.85;;;;;;;;;;5064496;28;20849;-69
2023/06/30 00:50:58;;;;;;;3.05;1.52;;;;;;;;;;5065170;28;20426;-70
2023/06/30 00:53:25;;;;;;;1.45;1.38;;;;;;;;;;5066606;28;20466;-69
2023/06/30 00:55:54;;;;;;;3.15;1.90;;;;;;;;;;5058398;28;20439;-70
2023/06/30 00:58:24;;;;;;;2.50;2.30;;;;;;;;;;5065825;28;22214;-70
2023/06/30 01:00:54;;;;;;;2.00;1.73;;;;;;;;;;5069682;28;20497;-70
2023/06/30 01:03:31;;;;;;;1.73;1.63;;;;;;;;;;5066600;28;20562;-70
2023/06/30 01:06:08;;;;;;;1.42;1.33;;;;;;;;;;5049965;28;20431;-70
2023/06/30 01:08:42;;;;;;;3.13;1.85;;;;;;;;;;5067318;28;20548;-69
2023/06/30 01:11:10;;;;;;;2.13;1.75;;;;;;;;;;5069639;28;20430;-70
2023/06/30 01:13:38;;;;;;;2.95;1.60;;;;;;;;;;5064380;28;20435;-69
2023/06/30 01:16:09;;;;;;;1.40;1.30;;;;;;;;;;5070050;28;20460;-70
2023/06/30 01:18:41;;;;;;;3.58;1.75;;;;;;;;;;5067628;28;20425;-70
2023/06/30 01:21:13;;;;;;;2.88;2.13;;;;;;;;;;5065107;28;20428;-70
2023/06/30 01:24:02;;;;;;;3.50;2.03;;;;;;;;;;5067543;28;20841;-70
2023/06/30 01:26:34;;;;;;;1.73;1.53;;;;;;;;;;5070954;28;20466;-71
2023/06/30 01:29:03;;;;;;;2.50;1.20;;;;;;;;;;5068587;28;20435;-72
2023/06/30 01:31:31;;;;;;;2.00;1.77;;;;;;;;;;5066823;28;20430;-69
2023/06/30 01:34:02;;;;;;;1.65;1.55;;;;;;;;;;5063087;28;21126;-70
2023/06/30 01:36:32;;;;;;;2.25;1.50;;;;;;;;;;5069415;28;20906;-71
2023/06/30 01:38:59;;;;;;;1.48;1.38;;;;;;;;;;5068270;28;20434;-71
2023/06/30 01:41:30;;;;;;;2.92;1.55;;;;;;;;;;5067259;28;20428;-71
2023/06/30 01:43:57;;;;;;;6.67;2.50;;;;;;;;;;5054291;28;20431;-71
2023/06/30 01:46:24;;;;;;;4.40;1.67;;;;;;;;;;5066536;28;20563;-71
2023/06/30 01:48:53;;;;;;;1.87;1.70;;;;;;;;;;5067886;28;20432;-70
2023/06/30 01:51:21;;;;;;;1.67;1.57;;;;;;;;;;5066380;28;20429;-72
2023/06/30 01:53:48;;;;;;;4.83;1.50;;;;;;;;;;5065058;28;20530;-71
2023/06/30 01:56:16;;;;;;;2.40;1.50;;;;;;;;;;5065969;28;20432;-71
2023/06/30 01:58:43;;;;;;;2.80;1.75;;;;;;;;;;5067845;28;20510;-71
2023/06/30 02:01:10;;;;;;;1.90;1.50;;;;;;;;;;5052546;28;20431;-72
2023/06/30 02:03:37;;;;;;;1.40;1.27;;;;;;;;;;5069034;28;20431;-71
2023/06/30 02:06:05;;;;;;;1.48;1.40;;;;;;;;;;5062527;28;20438;-70
2023/06/30 02:08:32;;;;;;;1.83;1.58;;;;;;;;;;5071624;28;20430;-70
2023/06/30 02:11:00;;;;;;;1.48;1.20;;;;;;;;;;5068443;28;20438;-69
2023/06/30 02:13:30;;;;;;;1.50;1.00;;;;;;;;;;5067492;28;20472;-70
2023/06/30 02:16:00;;;;;;;1.15;1.15;;;;;;;;;;5066368;28;20451;-70
2023/06/30 02:18:27;;;;;;;1.42;1.10;;;;;;;;;;5064061;28;20423;-69
2023/06/30 02:20:55;;;;;;;2.65;1.25;;;;;;;;;;5063405;28;21223;-69
2023/06/30 02:23:22;;;;;;;1.35;1.25;;;;;;;;;;5067173;28;20927;-69
2023/06/30 02:25:50;;;;;;;1.75;1.65;;;;;;;;;;5064459;28;20438;-70
2023/06/30 02:28:17;;;;;;;2.80;1.80;;;;;;;;;;5050224;28;20849;-70
2023/06/30 02:30:44;;;;;;;3.65;1.70;;;;;;;;;;5067135;28;20485;-69
2023/06/30 02:33:11;;;;;;;2.70;1.67;;;;;;;;;;5064310;28;20537;-70
2023/06/30 02:35:39;;;;;;;1.77;1.20;;;;;;;;;;5049602;28;21092;-70
2023/06/30 02:38:09;;;;;;;1.30;1.30;;;;;;;;;;5068899;28;20948;-69
2023/06/30 02:40:36;;;;;;;2.45;1.20;;;;;;;;;;5064737;28;20828;-69
2023/06/30 02:43:03;;;;;;;1.80;1.40;;;;;;;;;;5062535;28;20472;-70
2023/06/30 02:45:31;;;;;;;1.55;1.45;;;;;;;;;;5049875;28;20467;-70
2023/06/30 02:47:58;;;;;;;1.38;1.25;;;;;;;;;;5065068;28;20465;-70
2023/06/30 02:50:29;;;;;;;2.53;1.25;;;;;;;;;;5070731;28;20561;-70
2023/06/30 02:52:57;;;;;;;3.43;1.47;;;;;;;;;;5067171;28;20460;-70
2023/06/30 02:55:26;;;;;;;1.50;1.15;;;;;;;;;;5067842;28;20427;-70
2023/06/30 02:57:53;;;;;;;1.73;1.63;;;;;;;;;;5065803;28;20431;-70
2023/06/30 03:00:20;;;;;;;2.80;1.23;;;;;;;;;;5067648;28;21375;-70
2023/06/30 03:02:48;;;;;;;1.40;1.30;;;;;;;;;;5070548;28;20522;-70
2023/06/30 03:05:15;;;;;;;2.10;1.48;;;;;;;;;;5066038;28;20446;-70
2023/06/30 03:07:42;;;;;;;1.25;1.17;;;;;;;;;;5067675;28;20434;-70
2023/06/30 03:10:10;;;;;;;2.28;1.67;;;;;;;;;;5065718;28;20773;-68
2023/06/30 03:12:37;;;;;;;1.40;1.30;;;;;;;;;;5067970;28;20456;-68
2023/06/30 03:15:05;;;;;;;9.10;1.38;;;;;;;;;;5068235;28;20435;-69
2023/06/30 03:17:32;;;;;;;1.10;1.00;;;;;;;;;;5053244;28;20753;-68
2023/06/30 03:20:00;;;;;;;1.60;1.50;;;;;;;;;;5066662;28;20474;-68
2023/06/30 03:22:27;;;;;;;1.42;1.33;;;;;;;;;;5053032;28;20436;-69
2023/06/30 03:24:56;;;;;;;5.00;1.58;;;;;;;;;;5066667;28;20553;-69
2023/06/30 03:27:23;;;;;;;4.00;2.20;;;;;;;;;;5069105;28;20455;-69
2023/06/30 03:29:50;;;;;;;3.42;1.92;;;;;;;;;;5067978;28;20464;-69
2023/06/30 03:32:18;;;;;;;2.30;2.10;;;;;;;;;;5068082;28;20427;-68
2023/06/30 03:34:46;;;;;;;4.10;2.88;;;;;;;;;;5067347;28;20439;-69
2023/06/30 03:37:13;;;;;;;3.10;2.80;;;;;;;;;;5065922;28;20459;-71
2023/06/30 03:39:41;;;;;;;2.43;2.07;;;;;;;;;;5068531;28;20444;-71
2023/06/30 03:42:08;;;;;;;3.83;2.22;;;;;;;;;;5069335;28;20548;-73
2023/06/30 03:44:35;;;;;;;3.58;2.53;;;;;;;;;;5065998;28;20451;-70
2023/06/30 03:47:06;;;;;;;4.32;2.92;;;;;;;;;;5051642;28;20447;-72
2023/06/30 03:49:36;;;;;;;3.10;2.70;;;;;;;;;;5070204;28;20425;-73
2023/06/30 03:52:03;;;;;;;5.43;2.90;;;;;;;;;;5049147;28;20431;-71
2023/06/30 03:54:30;;;;;;;4.72;3.03;;;;;;;;;;5070353;28;20460;-73
2023/06/30 03:57:00;;;;;;;3.88;2.90;;;;;;;;;;5072425;28;20451;-71
2023/06/30 03:59:31;;;;;;;4.13;2.92;;;;;;;;;;5068552;28;20449;-70
2023/06/30 04:01:58;;;;;;;2.38;2.05;;;;;;;;;;5067321;28;20553;-70
2023/06/30 04:04:28;;;;;;;5.00;3.20;;;;;;;;;;5066887;28;20443;-70
2023/06/30 04:06:55;;;;;;;3.90;3.28;;;;;;;;;;5065294;28;20872;-70
2023/06/30 04:09:23;;;;;;;3.88;2.65;;;;;;;;;;5067627;28;20435;-69
2023/06/30 04:11:50;;;;;;;3.47;3.17;;;;;;;;;;5069059;28;20436;-69
2023/06/30 04:14:17;;;;;;;5.85;3.42;;;;;;;;;;5065609;28;20441;-70
2023/06/30 04:16:45;;;;;;;4.75;3.22;;;;;;;;;;5068074;28;20689;-68
2023/06/30 04:19:12;;;;;;;4.85;2.72;;;;;;;;;;5065899;28;20441;-70
2023/06/30 04:21:42;;;;;;;4.03;3.35;;;;;;;;;;5051856;28;20923;-70
2023/06/30 04:24:09;;;;;;;4.00;3.63;;;;;;;;;;5064988;28;20471;-70
2023/06/30 04:26:36;;;;;;;4.15;2.88;;;;;;;;;;5067684;28;20449;-69
2023/06/30 04:29:03;;;;;;;4.38;3.08;;;;;;;;;;5065830;28;20438;-68
2023/06/30 04:31:31;;;;;;;6.00;3.53;;;;;;;;;;5066304;28;20436;-69
2023/06/30 04:33:58;;;;;;;6.80;3.40;;;;;;;;;;5064141;28;21399;-69
2023/06/30 04:36:29;;;;;;;5.50;3.70;;;;;;;;;;5067299;28;20476;-71
2023/06/30 04:38:57;;;;;;;6.35;3.20;;;;;;;;;;5065059;28;20505;-69
2023/06/30 04:41:25;;;;;;;4.63;3.50;;;;;;;;;;5067325;28;20435;-68
2023/06/30 04:43:54;;;;;;;6.28;3.58;;;;;;;;;;5068285;28;20434;-69
2023/06/30 04:46:24;;;;;;;6.10;3.15;;;;;;;;;;5066406;28;20446;-70
2023/06/30 04:48:51;;;;;;;6.90;3.10;;;;;;;;;;5066004;28;20433;-68
2023/06/30 04:51:19;;;;;;;3.15;2.30;;;;;;;;;;5067264;28;20487;-70
2023/06/30 04:53:46;;;;;;;4.10;3.35;;;;;;;;;;5059808;28;20452;-71
2023/06/30 04:56:13;;;;;;;7.13;3.33;;;;;;;;;;5065625;28;20522;-69
2023/06/30 04:58:43;;;;;;;4.90;3.10;;;;;;;;;;5063235;28;20425;-69
2023/06/30 05:01:11;;;;;;;5.75;3.53;;;;;;;;;;5066489;28;20457;-70
2023/06/30 05:03:41;;;;;;;8.65;3.85;;;;;;;;;;5065232;28;20475;-70
2023/06/30 05:06:08;;;;;;;7.68;3.55;;;;;;;;;;5063094;28;20435;-71
2023/06/30 05:08:35;;;;;;;6.50;3.67;;;;;;;;;;5064968;28;20754;-70
2023/06/30 05:11:05;;;;;;;9.43;4.85;;;;;;;;;;5070431;28;20426;-69
2023/06/30 05:13:35;;;;;;;6.05;3.97;;;;;;;;;;5063800;28;20442;-69
2023/06/30 05:16:05;;;;;;;7.88;5.10;;;;;;;;;;5047569;28;20518;-69
2023/06/30 05:18:33;;;;;;;9.17;5.37;;;;;;;;;;5064001;28;20427;-69
2023/06/30 05:21:00;;;;;;;8.20;5.47;;;;;;;;;;5062813;28;20503;-68
2023/06/30 05:23:27;;;;;;;8.23;5.00;;;;;;;;;;5071534;28;20429;-70
2023/06/30 05:25:54;;;;;;;7.68;5.55;;;;;;;;;;5054656;28;20524;-70
2023/06/30 05:28:21;;;;;;;12.27;6.20;;;;;;;;;;5069800;28;20526;-71
2023/06/30 05:30:48;;;;;;;9.38;5.53;;;;;;;;;;5064278;28;20471;-71
2023/06/30 05:33:16;;;;;;;10.48;5.57;;;;;;;;;;5071783;28;20432;-71
2023/06/30 05:35:44;;;;;;;9.05;5.43;;;;;;;;;;5095204;28;20432;-70
2023/06/30 05:38:11;;;;;;;12.53;5.77;;;;;;;;;;5083649;28;20507;-69
2023/06/30 05:40:38;;;;;;;12.68;5.70;;;;;;;;;;5066716;28;20697;-69
2023/06/30 05:43:06;;;;;;;11.98;6.22;;;;;;;;;;5064694;28;20431;-70
2023/06/30 05:45:33;;;;;;;8.38;5.50;;;;;;;;;;5061762;28;20516;-71
2023/06/30 05:48:00;;;;;;;10.25;6.07;;;;;;;;;;5070459;28;20440;-69
2023/06/30 05:50:28;;;;;;;12.00;6.40;;;;;;;;;;5063651;28;20434;-70
2023/06/30 05:52:56;;;;;;;10.90;5.15;;;;;;;;;;5065968;28;20430;-70
2023/06/30 05:55:23;;;;;;;12.45;5.65;;;;;;;;;;5071766;28;20908;-70
2023/06/30 05:57:51;;;;;;;10.07;5.00;;;;;;;;;;5066909;28;20434;-69
2023/06/30 06:00:18;;;;;;;10.02;5.70;;;;;;;;;;5064521;28;20436;-74
2023/06/30 06:02:45;;;;;;;9.70;4.93;;;;;;;;;;5066754;28;20489;-70
2023/06/30 06:05:13;;;;;;;6.77;4.77;;;;;;;;;;5063254;28;20436;-70
2023/06/30 06:07:41;;;;;;;11.30;4.97;;;;;;;;;;5065495;28;20422;-70
2023/06/30 06:10:08;;;;;;;9.50;5.35;;;;;;;;;;5061923;28;21022;-69
2023/06/30 06:12:35;;;;;;;9.70;5.38;;;;;;;;;;5052809;28;20443;-76
2023/06/30 06:15:03;;;;;;;12.88;5.30;;;;;;;;;;5059485;28;20432;-69
2023/06/30 06:17:31;;;;;;;9.75;5.32;;;;;;;;;;5058195;28;20813;-69
2023/06/30 06:19:59;;;;;;;9.30;4.77;;;;;;;;;;5063244;28;20432;-70
2023/06/30 06:22:28;;;;;;;12.73;5.68;;;;;;;;;;5067851;28;20443;-74
2023/06/30 06:24:55;;;;;;;5.53;4.50;;;;;;;;;;5063855;28;20431;-70
2023/06/30 06:27:22;;;;;;;7.63;4.63;;;;;;;;;;5065606;28;20475;-71
2023/06/30 06:29:52;;;;;;;7.13;3.50;;;;;;;;;;5068851;28;20466;-70
2023/06/30 06:32:19;;;;;;;4.80;3.75;;;;;;;;;;5062826;28;20524;-70
2023/06/30 06:34:46;;;;;;;4.68;3.10;;;;;;;;;;5065181;28;20504;-69
2023/06/30 06:37:14;;;;;;;4.57;2.10;;;;;;;;;;5069187;28;20438;-78
2023/06/30 06:39:42;;;;;;;3.88;1.92;;;;;;;;;;5070044;28;20450;-75
2023/06/30 06:42:12;;;;;;;1.67;1.45;;;;;;;;;;5064636;28;20466;-72
2023/06/30 06:44:39;;;;;;;2.13;1.47;;;;;;;;;;5067077;28;20511;-69
2023/06/30 06:47:25;;;;;;;2.42;1.45;;;;;;;;;;5069032;28;20489;-71
2023/06/30 06:49:52;;;;;;;3.00;1.67;;;;;;;;;;5067865;28;20430;-70
2023/06/30 06:52:20;;;;;;;2.78;1.35;;;;;;;;;;5065273;28;20509;-71
2023/06/30 06:54:48;;;;;;;1.85;1.17;;;;;;;;;;5063735;28;20441;-70
2023/06/30 06:57:16;;;;;;;1.67;1.58;;;;;;;;;;5067017;28;20803;-71
2023/06/30 06:59:43;;;;;;;1.80;1.00;;;;;;;;;;5065918;28;21065;-73
2023/06/30 07:02:11;;;;;;;1.05;1.00;;;;;;;;;;5067598;28;20431;-69
2023/06/30 07:04:38;;;;;;;1.50;1.40;;;;;;;;;;5067023;28;20490;-70
2023/06/30 07:07:05;;;;;;;2.60;1.17;;;;;;;;;;5066039;28;22872;-72
2023/06/30 07:09:38;;;;;;;0.77;0.77;;;;;;;;;;5066871;28;20433;-68
2023/06/30 07:12:06;;;;;;;0.70;0.70;;;;;;;;;;5067624;28;20430;-71
2023/06/30 07:14:34;;;;;;;0.60;0.60;;;;;;;;;;5066625;28;20445;-77
2023/06/30 07:17:01;;;;;;;0.67;0.63;;;;;;;;;;5065524;28;20804;-74
2023/06/30 07:19:28;;;;;;;0.60;0.60;;;;;;;;;;5071175;28;20484;-75
2023/06/30 07:21:55;;;;;;;0.60;0.60;;;;;;;;;;5060506;28;20462;-69
2023/06/30 07:24:26;;;;;;;0.60;0.60;;;;;;;;;;5066053;28;20433;-70
2023/06/30 07:27:07;;;;;;;0.33;0.33;;;;;;;;;;5067105;28;20505;-69
2023/06/30 07:29:35;;;;;;;0.60;0.60;;;;;;;;;;5063676;28;21231;-71
2023/06/30 07:32:02;;;;;;;2.00;0.95;;;;;;;;;;5059669;28;20422;-69
2023/06/30 07:34:33;;;;;;;0.60;0.50;;;;;;;;;;5068234;28;20865;-76
2023/06/30 07:37:04;;;;;;;0.40;0.40;;;;;;;;;;5067890;28;20542;-70
2023/06/30 07:39:33;;;;;;;0.70;0.70;;;;;;;;;;5064474;28;20533;-72
2023/06/30 07:42:00;;;;;;;0.45;0.45;;;;;;;;;;5066085;28;21225;-71
2023/06/30 07:44:28;;;;;;;0.50;0.50;;;;;;;;;;5066429;28;22761;-69
2023/06/30 07:46:55;;;;;;;0.50;0.50;;;;;;;;;;5061942;28;20469;-71
2023/06/30 07:49:26;;;;;;;0.60;0.60;;;;;;;;;;5060843;28;20813;-70
2023/06/30 07:51:53;;;;;;;0.50;0.50;;;;;;;;;;5060137;28;20467;-69
2023/06/30 07:54:21;;;;;;;0.40;0.40;;;;;;;;;;5062983;28;20428;-70
2023/06/30 07:56:49;;;;;;;0.52;0.52;;;;;;;;;;5068856;28;20429;-69
2023/06/30 07:59:16;;;;;;;0.60;0.60;;;;;;;;;;5064878;28;20483;-70
2023/06/30 08:01:45;;;;;;;0.80;0.60;;;;;;;;;;5051816;28;20437;-69
2023/06/30 08:04:12;;;;;;;0.50;0.50;;;;;;;;;;5064874;28;21034;-69
2023/06/30 08:06:40;;;;;;;0.45;0.45;;;;;;;;;;5063523;28;20445;-69
2023/06/30 08:09:08;;;;;;;0.45;0.45;;;;;;;;;;5067836;28;20420;-68
2023/06/30 08:11:35;;;;;;;0.40;0.40;;;;;;;;;;5066564;28;20497;-71
2023/06/30 08:14:04;;;;;;;0.52;0.52;;;;;;;;;;5066170;28;20432;-69
2023/06/30 08:16:31;;;;;;;0.60;0.60;;;;;;;;;;5068154;28;20535;-75
2023/06/30 08:19:00;;;;;;;0.40;0.40;;;;;;;;;;5066498;28;20456;-70
2023/06/30 08:21:28;;;;;;;0.40;0.40;;;;;;;;;;5064753;28;20524;-71
2023/06/30 08:24:02;;;;;;;0.40;0.40;;;;;;;;;;5066050;28;20432;-74
2023/06/30 08:26:31;;;;;;;0.60;0.60;;;;;;;;;;5065745;28;20437;-69
2023/06/30 08:28:58;;;;;;;0.30;0.30;;;;;;;;;;5046577;28;20516;-70
2023/06/30 08:31:25;;;;;;;0.80;0.80;;;;;;;;;;5061313;28;20430;-69
2023/06/30 08:33:53;;;;;;;0.30;0.30;;;;;;;;;;5049324;28;20502;-70
2023/06/30 08:36:26;;;;;;;0.47;0.47;;;;;;;;;;5064845;28;20467;-72
2023/06/30 08:38:54;;;;;;;0.40;0.40;;;;;;;;;;5064126;28;20475;-69
2023/06/30 08:41:21;;;;;;;0.37;0.37;;;;;;;;;;5066509;28;20446;-69
2023/06/30 08:43:48;;;;;;;0.30;0.30;;;;;;;;;;5061132;28;20518;-69
2023/06/30 08:46:16;;;;;;;1.50;0.40;;;;;;;;;;5056242;28;20462;-69
2023/06/30 08:48:44;;;;;;;0.40;0.40;;;;;;;;;;5044746;28;20461;-69
2023/06/30 08:51:12;;;;;;;0.50;0.50;;;;;;;;;;5055668;28;20461;-69
2023/06/30 08:53:42;;;;;;;0.40;0.40;;;;;;;;;;5059715;28;20947;-69
2023/06/30 08:56:10;;;;;;;0.40;0.40;;;;;;;;;;5063080;28;20438;-69
2023/06/30 08:58:37;;;;;;;1.67;0.60;;;;;;;;;;5065490;28;20426;-69
2023/06/30 09:01:05;;;;;;;0.50;0.50;;;;;;;;;;5064232;28;20522;-69
2023/06/30 09:03:36;;;;;;;0.30;0.30;;;;;;;;;;5064977;28;20792;-69
2023/06/30 09:06:04;;;;;;;0.43;0.43;;;;;;;;;;5062299;28;20437;-68
2023/06/30 09:08:36;;;;;;;0.30;0.30;;;;;;;;;;5064978;28;20425;-70
2023/06/30 09:11:04;;;;;;;0.60;0.60;;;;;;;;;;5059281;28;20422;-71
2023/06/30 09:13:33;;;;;;;0.30;0.30;;;;;;;;;;5067129;28;20423;-73
2023/06/30 09:16:04;;;;;;;0.40;0.40;;;;;;;;;;5064547;28;20435;-70
2023/06/30 09:18:31;;;;;;;0.40;0.40;;;;;;;;;;5064748;28;20427;-73
2023/06/30 09:20:59;;;;;;;0.45;0.45;;;;;;;;;;5064172;28;22938;-71
2023/06/30 09:23:36;;;;;;;0.30;0.30;;;;;;;;;;5066594;28;20424;-70
2023/06/30 09:26:11;;;;;;;0.25;0.25;;;;;;;;;;5064853;28;20512;-68
2023/06/30 09:28:40;;;;;;;0.40;0.40;;;;;;;;;;5063913;28;20422;-68
2023/06/30 09:31:08;;;;;;;0.70;0.40;;;;;;;;;;5064108;28;20484;-68
2023/06/30 09:33:37;;;;;;;0.30;0.30;;;;;;;;;;5065126;28;20438;-75
2023/06/30 09:36:05;;;;;;;0.50;0.40;;;;;;;;;;5065587;28;20478;-70
2023/06/30 09:38:33;;;;;;;0.90;0.50;;;;;;;;;;5062393;28;20476;-72
2023/06/30 09:41:03;;;;;;;0.43;0.40;;;;;;;;;;5064924;28;20786;-71
2023/06/30 09:43:30;;;;;;;0.70;0.50;;;;;;;;;;5065370;28;20420;-69
2023/06/30 09:46:01;;;;;;;0.60;0.38;;;;;;;;;;5061361;28;20435;-68
2023/06/30 09:48:38;;;;;;;0.30;0.30;;;;;;;;;;5060352;28;20615;-69
2023/06/30 09:51:09;;;;;;;0.38;0.38;;;;;;;;;;5052914;28;20439;-69
2023/06/30 09:53:37;;;;;;;0.30;0.30;;;;;;;;;;5064244;28;20437;-69
2023/06/30 09:56:04;;;;;;;0.30;0.30;;;;;;;;;;5064956;28;21040;-70
2023/06/30 09:58:32;;;;;;;0.30;0.30;;;;;;;;;;5065862;28;20434;-69
2023/06/30 10:00:59;;;;;;;0.30;0.30;;;;;;;;;;5064834;28;20470;-69
2023/06/30 10:03:26;;;;;;;0.28;0.28;;;;;;;;;;5064997;28;20429;-70
2023/06/30 10:05:54;;;;;;;0.20;0.20;;;;;;;;;;5060670;28;20930;-69
2023/06/30 10:08:23;;;;;;;0.20;0.20;;;;;;;;;;5061166;28;20540;-74
2023/06/30 10:10:53;;;;;;;0.28;0.28;;;;;;;;;;5061619;28;20427;-70
2023/06/30 10:13:20;;;;;;;0.40;0.40;;;;;;;;;;5063935;28;20504;-69
2023/06/30 10:15:48;;;;;;;0.30;0.30;;;;;;;;;;5063184;28;20482;-75
2023/06/30 10:18:17;;;;;;;0.30;0.30;;;;;;;;;;5069698;28;20437;-68
2023/06/30 10:20:45;;;;;;;0.30;0.20;;;;;;;;;;5064345;28;20438;-69
2023/06/30 10:23:17;;;;;;;0.60;0.60;;;;;;;;;;5063890;28;20524;-69
2023/06/30 10:25:44;;;;;;;0.30;0.30;;;;;;;;;;5062936;28;21007;-68
2023/06/30 10:28:14;;;;;;;0.50;0.50;;;;;;;;;;5068316;28;20536;-74
2023/06/30 10:30:42;;;;;;;0.50;0.50;;;;;;;;;;5067199;28;20978;-72
2023/06/30 10:33:10;;;;;;;0.30;0.30;;;;;;;;;;5061944;28;20944;-68
2023/06/30 10:35:39;;;;;;;0.32;0.32;;;;;;;;;;5065174;28;20429;-68
2023/06/30 10:38:07;;;;;;;0.40;0.40;;;;;;;;;;5066597;28;20427;-69
2023/06/30 10:40:34;;;;;;;0.32;0.32;;;;;;;;;;5061412;28;20461;-68
2023/06/30 10:43:01;;;;;;;0.25;0.25;;;;;;;;;;5059527;28;20427;-68
2023/06/30 10:45:34;;;;;;;0.38;0.38;;;;;;;;;;5057251;28;20824;-72
2023/06/30 10:51:12;;;;;;;0.50;0.50;;;;;;;;;;5063387;28;20513;-71
2023/06/30 10:53:43;;;;;;;0.40;0.40;;;;;;;;;;5063394;28;20439;-72
2023/06/30 10:56:11;;;;;;;0.30;0.30;;;;;;;;;;5065086;28;20529;-67
2023/06/30 10:58:42;;;;;;;0.60;0.60;;;;;;;;;;5064896;28;20528;-67
2023/06/30 11:01:10;;;;;;;2.67;0.40;;;;;;;;;;5058476;28;20472;-67
2023/06/30 11:03:58;;;;;;;0.65;0.50;;;;;;;;;;5062508;28;20512;-69
2023/06/30 11:06:26;;;;;;;0.25;0.25;;;;;;;;;;5048625;28;20426;-68
2023/06/30 11:09:00;;;;;;;0.57;0.40;;;;;;;;;;5051067;28;20431;-67
2023/06/30 11:11:28;;;;;;;0.40;0.40;;;;;;;;;;5065962;28;20512;-68
2023/06/30 11:14:05;;;;;;;0.60;0.60;;;;;;;;;;5068131;28;21455;-69
2023/06/30 11:16:51;;;;;;;0.70;0.50;;;;;;;;;;5068489;28;21417;-73
2023/06/30 11:19:26;;;;;;;0.50;0.50;;;;;;;;;;5067694;28;20427;-71
2023/06/30 11:22:12;;;;;;;0.40;0.40;;;;;;;;;;5066496;28;20430;-69
2023/06/30 11:24:40;;;;;;;0.50;0.50;;;;;;;;;;5069508;28;20430;-67
2023/06/30 11:27:08;;;;;;;0.60;0.50;;;;;;;;;;5072581;28;20443;-68
2023/06/30 11:29:40;;;;;;;0.60;0.40;;;;;;;;;;5069234;28;20431;-70
2023/06/30 11:32:08;;;;;;;0.43;0.43;;;;;;;;;;5071871;28;20565;-68
2023/06/30 11:34:35;;;;;;;0.60;0.60;;;;;;;;;;5067523;28;20514;-67
2023/06/30 11:37:06;;;;;;;0.45;0.45;;;;;;;;;;5072546;28;20484;-68
2023/06/30 11:39:36;;;;;;;0.30;0.30;;;;;;;;;;5075490;28;20775;-69
2023/06/30 11:42:03;;;;;;;0.90;0.30;;;;;;;;;;5067898;28;20457;-68
2023/06/30 11:44:35;;;;;;;0.70;0.70;;;;;;;;;;5063645;28;20435;-66
2023/06/30 11:47:03;;;;;;;0.40;0.40;;;;;;;;;;5064493;28;20443;-68
2023/06/30 11:49:35;;;;;;;0.57;0.57;;;;;;;;;;5071486;28;20466;-69
2023/06/30 11:52:05;;;;;;;0.50;0.50;;;;;;;;;;5065501;28;20523;-71
2023/06/30 11:54:33;;;;;;;0.40;0.40;;;;;;;;;;5067114;28;22445;-70
2023/06/30 11:57:08;;;;;;;0.40;0.40;;;;;;;;;;5065241;28;20997;-68
2023/06/30 11:59:39;;;;;;;0.50;0.50;;;;;;;;;;5066748;28;20428;-67
2023/06/30 12:02:12;;;;;;;0.50;0.50;;;;;;;;;;5067244;28;20956;-67
2023/06/30 12:04:45;;;;;;;1.10;0.50;;;;;;;;;;5046938;28;20474;-69
2023/06/30 12:07:14;;;;;;;0.32;0.32;;;;;;;;;;5059607;28;20489;-72
2023/06/30 12:09:41;;;;;;;0.38;0.38;;;;;;;;;;5067268;28;20448;-68
2023/06/30 12:12:09;;;;;;;0.40;0.40;;;;;;;;;;5061329;28;20490;-68
2023/06/30 12:14:42;;;;;;;0.40;0.40;;;;;;;;;;5062283;28;20509;-69
2023/06/30 12:17:09;;;;;;;0.35;0.35;;;;;;;;;;5066945;28;20531;-69
2023/06/30 12:19:37;;;;;;;0.32;0.32;;;;;;;;;;5069665;28;20422;-70
2023/06/30 12:22:06;;;;;;;0.47;0.47;;;;;;;;;;5064226;28;20506;-69
2023/06/30 12:24:42;;;;;;;1.00;0.50;;;;;;;;;;5063342;28;20438;-69
2023/06/30 12:27:09;;;;;;;0.32;0.32;;;;;;;;;;5062753;28;20431;-68
2023/06/30 12:29:36;;;;;;;0.60;0.60;;;;;;;;;;5063111;28;20455;-68
2023/06/30 12:32:13;;;;;;;0.50;0.50;;;;;;;;;;5064510;28;20433;-67
2023/06/30 12:34:45;;;;;;;0.50;0.50;;;;;;;;;;5064939;28;20440;-67
2023/06/30 12:37:15;;;;;;;0.40;0.40;;;;;;;;;;5065748;28;20443;-67
2023/06/30 12:39:42;;;;;;;0.50;0.50;;;;;;;;;;5065326;28;20420;-68
2023/06/30 12:42:11;;;;;;;1.60;0.45;;;;;;;;;;5065695;28;20511;-67
2023/06/30 12:44:38;;;;;;;1.20;0.65;;;;;;;;;;5054803;28;20434;-68
2023/06/30 12:47:08;;;;;;;0.50;0.50;;;;;;;;;;5048225;28;20427;-68
2023/06/30 12:49:37;;;;;;;0.40;0.40;;;;;;;;;;5066177;28;20520;-67
2023/06/30 12:52:08;;;;;;;0.60;0.60;;;;;;;;;;5060905;28;20948;-68
2023/06/30 12:54:35;;;;;;;0.70;0.70;;;;;;;;;;5063610;28;22279;-69
2023/06/30 12:57:06;;;;;;;0.60;0.53;;;;;;;;;;5063219;28;20423;-66
2023/06/30 12:59:33;;;;;;;0.40;0.40;;;;;;;;;;5051906;28;20425;-69
2023/06/30 13:02:04;;;;;;;0.65;0.50;;;;;;;;;;5060971;28;20503;-72
2023/06/30 13:04:31;;;;;;;0.50;0.50;;;;;;;;;;5065505;28;20431;-68
2023/06/30 13:07:01;;;;;;;0.50;0.50;;;;;;;;;;5066840;28;20425;-67
2023/06/30 13:09:28;;;;;;;0.80;0.80;;;;;;;;;;5061454;28;21198;-70
2023/06/30 13:12:00;;;;;;;0.80;0.70;;;;;;;;;;5066584;28;20437;-69
2023/06/30 13:14:27;;;;;;;1.65;0.60;;;;;;;;;;5065289;28;20427;-68
2023/06/30 13:16:54;;;;;;;0.90;0.70;;;;;;;;;;5064937;28;20899;-69
2023/06/30 13:19:28;;;;;;;0.50;0.50;;;;;;;;;;5065554;28;20594;-69
2023/06/30 13:21:55;;;;;;;0.80;0.80;;;;;;;;;;5046568;28;20425;-69
2023/06/30 13:24:27;;;;;;;0.60;0.60;;;;;;;;;;5062970;28;20442;-68
2023/06/30 13:26:56;;;;;;;2.47;0.80;;;;;;;;;;5068814;28;20430;-68
2023/06/30 13:29:25;;;;;;;1.08;0.98;;;;;;;;;;5062585;28;21006;-68
2023/06/30 13:31:53;;;;;;;0.65;0.65;;;;;;;;;;5062697;28;21857;-69
2023/06/30 13:34:25;;;;;;;0.80;0.63;;;;;;;;;;5061018;28;20435;-68
2023/06/30 13:36:57;;;;;;;2.05;0.95;;;;;;;;;;5068298;28;20510;-69
2023/06/30 13:39:24;;;;;;;0.93;0.83;;;;;;;;;;5067012;28;20583;-67
2023/06/30 13:41:51;;;;;;;0.50;0.50;;;;;;;;;;5058110;28;20439;-68
2023/06/30 13:44:18;;;;;;;0.80;0.80;;;;;;;;;;5061671;28;20426;-69
2023/06/30 13:46:46;;;;;;;0.70;0.70;;;;;;;;;;5059494;28;20439;-70
2023/06/30 13:49:17;;;;;;;0.70;0.70;;;;;;;;;;5061901;28;20432;-68
2023/06/30 13:51:48;;;;;;;0.70;0.70;;;;;;;;;;5057795;28;20425;-69
2023/06/30 13:54:17;;;;;;;0.80;0.80;;;;;;;;;;5062871;28;20436;-68
2023/06/30 13:56:46;;;;;;;0.80;0.80;;;;;;;;;;5063746;28;21196;-69
2023/06/30 13:59:13;;;;;;;0.90;0.73;;;;;;;;;;5060354;28;20950;-69
2023/06/30 14:01:41;;;;;;;1.00;0.85;;;;;;;;;;5058985;28;20513;-69
2023/06/30 14:04:32;;;;;;;0.70;0.70;;;;;;;;;;5049135;28;20418;-69
2023/06/30 14:07:04;;;;;;;0.47;0.47;;;;;;;;;;5063108;28;20978;-70
2023/06/30 14:09:31;;;;;;;0.60;0.60;;;;;;;;;;5060629;28;20462;-70
2023/06/30 14:11:58;;;;;;;0.52;0.52;;;;;;;;;;5047983;28;20441;-68
2023/06/30 14:14:25;;;;;;;0.63;0.63;;;;;;;;;;5048538;28;20427;-70
2023/06/30 14:16:52;;;;;;;0.70;0.70;;;;;;;;;;5062293;28;20507;-70
2023/06/30 14:19:20;;;;;;;0.60;0.60;;;;;;;;;;5044378;28;20431;-70
2023/06/30 14:21:47;;;;;;;0.55;0.55;;;;;;;;;;5064576;28;20432;-68
2023/06/30 14:24:17;;;;;;;0.55;0.55;;;;;;;;;;5062113;28;20426;-69
2023/06/30 14:26:45;;;;;;;1.20;0.75;;;;;;;;;;5062889;28;20519;-71
2023/06/30 14:29:17;;;;;;;0.80;0.80;;;;;;;;;;5065188;28;20468;-71
2023/06/30 14:31:44;;;;;;;0.73;0.73;;;;;;;;;;5064029;28;20521;-71
2023/06/30 14:34:12;;;;;;;0.57;0.57;;;;;;;;;;5062339;28;20433;-70
2023/06/30 14:36:39;;;;;;;1.70;0.60;;;;;;;;;;5066479;28;20931;-69
2023/06/30 14:39:11;;;;;;;0.77;0.52;;;;;;;;;;5058395;28;22844;-67
2023/06/30 14:41:38;;;;;;;0.60;0.60;;;;;;;;;;5061632;28;20425;-71
2023/06/30 14:44:27;;;;;;;0.70;0.70;;;;;;;;;;5065972;28;20530;-69
2023/06/30 14:47:00;;;;;;;0.50;0.50;;;;;;;;;;5067114;28;20525;-69
2023/06/30 14:49:27;;;;;;;1.77;0.77;;;;;;;;;;5051518;28;20493;-69
2023/06/30 14:51:54;;;;;;;0.47;0.47;;;;;;;;;;5063432;28;20439;-69
2023/06/30 14:54:27;;;;;;;0.50;0.50;;;;;;;;;;5065207;28;20513;-70
2023/06/30 14:56:54;;;;;;;0.80;0.70;;;;;;;;;;5067237;28;20513;-68